createdAt,value
2018-09-10T00:02:07.394Z,15.80
2018-09-10T00:04:37.270Z,15.80
2018-09-10T00:07:07.179Z,15.80
2018-09-10T00:09:36.617Z,15.80
2018-09-10T00:12:06.435Z,15.70
2018-09-10T00:14:35.927Z,15.70
2018-09-10T00:17:06.846Z,15.70
2018-09-10T00:19:36.813Z,15.60
2018-09-10T00:22:06.301Z,15.60
2018-09-10T00:24:35.721Z,15.60
2018-09-10T00:27:05.597Z,15.60
2018-09-10T00:29:35.298Z,15.60
2018-09-10T00:32:05.451Z,15.60
2018-09-10T00:34:35.180Z,15.60
2018-09-10T00:37:04.992Z,15.50
2018-09-10T00:39:34.400Z,15.50
2018-09-10T00:42:04.766Z,15.50
2018-09-10T00:44:34.166Z,15.50
2018-09-10T00:47:03.521Z,15.50
2018-09-10T00:49:32.984Z,15.50
2018-09-10T00:52:02.863Z,15.40
2018-09-10T00:54:32.507Z,15.40
2018-09-10T00:57:01.974Z,15.40
2018-09-10T00:59:31.788Z,15.40
2018-09-10T01:02:01.614Z,15.30
2018-09-10T01:04:31.469Z,15.30
2018-09-10T01:07:00.945Z,15.30
2018-09-10T01:09:31.282Z,15.30
2018-09-10T01:12:01.195Z,15.30
2018-09-10T01:14:30.694Z,15.30
2018-09-10T01:17:00.292Z,15.30
2018-09-10T01:19:30.112Z,15.20
2018-09-10T01:21:59.632Z,15.30
2018-09-10T01:24:29.281Z,15.30
2018-09-10T01:26:58.848Z,15.30
2018-09-10T01:29:28.664Z,15.30
2018-09-10T01:31:58.931Z,15.30
2018-09-10T01:34:35.600Z,15.30
2018-09-10T01:37:05.300Z,15.30
2018-09-10T01:39:35.276Z,15.30
2018-09-10T01:42:05.045Z,15.30
2018-09-10T01:44:34.460Z,15.30
2018-09-10T01:47:03.809Z,15.30
2018-09-10T01:49:33.538Z,15.30
2018-09-10T01:52:03.127Z,15.30
2018-09-10T01:54:33.105Z,15.30
2018-09-10T01:57:02.777Z,15.30
2018-09-10T01:59:32.485Z,15.30
2018-09-10T02:02:01.961Z,15.30
2018-09-10T02:04:32.170Z,15.30
2018-09-10T02:07:01.870Z,15.20
2018-09-10T02:09:31.313Z,15.20
2018-09-10T02:12:01.810Z,15.20
2018-09-10T02:14:31.447Z,15.30
2018-09-10T02:17:01.163Z,15.30
2018-09-10T02:19:30.985Z,15.30
2018-09-10T02:22:00.525Z,15.20
2018-09-10T02:24:31.896Z,15.20
2018-09-10T02:27:01.414Z,15.20
2018-09-10T02:29:31.291Z,15.20
2018-09-10T02:32:00.909Z,15.20
2018-09-10T02:34:30.926Z,15.20
2018-09-10T02:37:00.441Z,15.20
2018-09-10T02:39:30.463Z,15.20
2018-09-10T02:42:00.062Z,15.10
2018-09-10T02:44:29.617Z,15.00
2018-09-10T02:46:59.209Z,15.10
2018-09-10T02:49:28.776Z,15.10
2018-09-10T02:51:58.547Z,15.10
2018-09-10T02:54:28.398Z,15.10
2018-09-10T02:56:58.554Z,15.10
2018-09-10T02:59:28.545Z,15.10
2018-09-10T03:01:58.253Z,15.20
2018-09-10T03:04:28.002Z,15.20
2018-09-10T03:06:57.929Z,15.30
2018-09-10T03:09:27.681Z,15.20
2018-09-10T03:11:57.521Z,15.20
2018-09-10T03:14:27.230Z,15.20
2018-09-10T03:16:57.374Z,15.10
2018-09-10T03:19:27.102Z,15.20
2018-09-10T03:21:56.778Z,15.10
2018-09-10T03:24:27.349Z,15.00
2018-09-10T03:26:56.919Z,14.90
2018-09-10T03:29:26.501Z,14.90
2018-09-10T03:31:56.293Z,14.90
2018-09-10T03:34:26.501Z,15.00
2018-09-10T03:36:55.977Z,15.00
2018-09-10T03:39:25.929Z,15.00
2018-09-10T03:41:55.590Z,14.90
2018-09-10T03:44:25.069Z,14.90
2018-09-10T03:46:54.964Z,14.90
2018-09-10T03:49:24.531Z,14.90
2018-09-10T03:51:54.149Z,15.00
2018-09-10T03:54:24.238Z,15.00
2018-09-10T03:56:54.422Z,15.00
2018-09-10T03:59:23.971Z,15.00
2018-09-10T04:01:53.622Z,15.10
2018-09-10T04:04:23.709Z,15.10
2018-09-10T04:06:53.719Z,15.10
2018-09-10T04:09:23.514Z,15.10
2018-09-10T04:11:53.306Z,15.10
2018-09-10T04:17:01.933Z,15.10
2018-09-10T04:19:31.837Z,15.00
2018-09-10T04:22:01.409Z,15.00
2018-09-10T04:24:31.338Z,15.00
2018-09-10T04:27:01.089Z,15.00
2018-09-10T04:29:30.872Z,15.00
2018-09-10T04:32:00.673Z,15.00
2018-09-10T04:34:30.457Z,15.00
2018-09-10T04:37:00.241Z,15.00
2018-09-10T04:39:30.555Z,15.00
2018-09-10T04:42:00.790Z,15.00
2018-09-10T04:44:30.955Z,15.10
2018-09-10T04:47:00.975Z,15.10
2018-09-10T04:49:31.261Z,15.10
2018-09-10T04:52:01.362Z,15.00
2018-09-10T04:54:31.322Z,15.00
2018-09-10T04:57:01.193Z,15.00
2018-09-10T04:59:31.632Z,14.90
2018-09-10T05:02:01.597Z,15.00
2018-09-10T05:04:31.909Z,15.00
2018-09-10T05:07:02.022Z,15.00
2018-09-10T05:09:31.828Z,15.00
2018-09-10T05:12:01.977Z,15.10
2018-09-10T05:14:32.232Z,15.10
2018-09-10T05:17:03.219Z,15.20
2018-09-10T05:19:34.199Z,15.20
2018-09-10T05:22:05.006Z,15.20
2018-09-10T05:24:34.718Z,15.30
2018-09-10T05:27:04.639Z,15.30
2018-09-10T05:29:34.247Z,15.30
2018-09-10T05:32:04.117Z,15.40
2018-09-10T05:34:34.165Z,15.40
2018-09-10T05:37:03.850Z,15.40
2018-09-10T05:39:33.521Z,15.40
2018-09-10T05:42:03.510Z,15.40
2018-09-10T05:44:33.265Z,15.40
2018-09-10T05:47:03.086Z,15.40
2018-09-10T05:49:32.870Z,15.50
2018-09-10T05:52:02.588Z,15.50
2018-09-10T05:54:32.929Z,15.70
2018-09-10T05:57:02.572Z,15.70
2018-09-10T05:59:32.819Z,15.90
2018-09-10T06:02:02.643Z,16.00
2018-09-10T06:04:32.642Z,16.00
2018-09-10T06:07:02.463Z,16.10
2018-09-10T06:09:32.523Z,16.10
2018-09-10T06:12:02.337Z,16.10
2018-09-10T06:14:31.715Z,16.10
2018-09-10T06:17:01.474Z,16.30
2018-09-10T06:19:31.481Z,16.30
2018-09-10T06:22:01.729Z,16.30
2018-09-10T06:24:31.900Z,16.20
2018-09-10T06:27:01.634Z,16.30
2018-09-10T06:29:31.894Z,16.30
2018-09-10T06:32:01.992Z,16.40
2018-09-10T06:34:32.269Z,16.40
2018-09-10T06:37:02.781Z,16.50
2018-09-10T06:39:32.798Z,16.50
2018-09-10T06:42:02.712Z,16.50
2018-09-10T06:44:32.880Z,16.60
2018-09-10T06:47:03.374Z,16.60
2018-09-10T06:49:33.338Z,16.70
2018-09-10T06:52:03.356Z,16.70
2018-09-10T06:54:35.735Z,16.80
2018-09-10T06:57:06.211Z,16.80
2018-09-10T06:59:36.105Z,16.90
2018-09-10T07:02:06.250Z,17.00
2018-09-10T07:04:36.419Z,17.10
2018-09-10T07:07:06.788Z,17.20
2018-09-10T07:09:36.908Z,17.30
2018-09-10T07:12:06.845Z,17.30
2018-09-10T07:14:36.808Z,17.30
2018-09-10T07:17:07.905Z,17.40
2018-09-10T07:19:37.794Z,17.40
2018-09-10T07:22:07.702Z,17.40
2018-09-10T07:24:37.719Z,17.50
2018-09-10T07:27:07.724Z,17.60
2018-09-10T07:29:37.759Z,17.60
2018-09-10T07:32:07.631Z,17.70
2018-09-10T07:34:37.553Z,17.70
2018-09-10T07:37:07.721Z,17.90
2018-09-10T07:39:38.092Z,18.00
2018-09-10T07:42:08.109Z,18.20
2018-09-10T07:44:37.850Z,18.30
2018-09-10T07:47:07.778Z,18.40
2018-09-10T07:49:37.636Z,18.60
2018-09-10T07:52:07.848Z,18.70
2018-09-10T07:54:37.533Z,19.00
2018-09-10T07:57:07.642Z,19.30
2018-09-10T07:59:37.276Z,19.30
2018-09-10T08:02:07.038Z,19.30
2018-09-10T08:04:36.717Z,19.20
2018-09-10T08:07:06.899Z,19.20
2018-09-10T08:09:36.659Z,19.20
2018-09-10T08:12:07.290Z,19.30
2018-09-10T08:14:37.294Z,19.40
2018-09-10T08:17:07.145Z,19.30
2018-09-10T08:19:36.594Z,19.20
2018-09-10T08:22:07.027Z,19.20
2018-09-10T08:24:36.733Z,19.10
2018-09-10T08:27:06.342Z,19.20
2018-09-10T08:29:36.166Z,19.20
2018-09-10T08:32:06.210Z,19.20
2018-09-10T08:34:36.706Z,19.30
2018-09-10T08:37:06.590Z,19.30
2018-09-10T08:39:36.364Z,19.30
2018-09-10T08:42:06.023Z,19.40
2018-09-10T08:44:35.889Z,19.20
2018-09-10T08:47:05.975Z,19.10
2018-09-10T08:49:36.543Z,19.30
2018-09-10T08:52:06.394Z,19.20
2018-09-10T08:54:36.424Z,19.40
2018-09-10T08:57:06.457Z,19.50
2018-09-10T08:59:36.069Z,19.60
2018-09-10T09:02:05.419Z,19.60
2018-09-10T09:04:35.623Z,19.60
2018-09-10T09:07:05.329Z,19.70
2018-09-10T09:09:34.859Z,19.60
2018-09-10T09:12:04.334Z,19.60
2018-09-10T09:14:35.548Z,19.50
2018-09-10T09:17:05.366Z,19.50
2018-09-10T09:19:35.013Z,19.60
2018-09-10T09:22:05.890Z,19.70
2018-09-10T09:24:35.671Z,19.70
2018-09-10T09:27:05.440Z,19.60
2018-09-10T09:29:35.696Z,19.70
2018-09-10T09:32:05.560Z,19.70
2018-09-10T09:34:41.469Z,19.60
2018-09-10T09:39:23.789Z,19.60
2018-09-10T09:41:59.001Z,19.60
2018-09-10T09:44:33.737Z,19.80
2018-09-10T09:47:03.640Z,19.90
2018-09-10T09:49:33.624Z,19.90
2018-09-10T09:52:03.250Z,19.90
2018-09-10T09:54:33.472Z,20.00
2018-09-10T09:57:04.896Z,20.00
2018-09-10T09:59:35.565Z,20.10
2018-09-10T10:02:11.000Z,20.10
2018-09-10T10:04:41.727Z,20.20
2018-09-10T10:07:12.127Z,20.20
2018-09-10T10:09:43.226Z,20.10
2018-09-10T10:12:14.598Z,20.30
2018-09-10T10:14:44.610Z,20.40
2018-09-10T10:17:16.661Z,20.60
2018-09-10T10:19:47.126Z,20.60
2018-09-10T10:22:18.933Z,20.70
2018-09-10T10:24:49.448Z,20.60
2018-09-10T10:27:19.614Z,20.60
2018-09-10T10:29:49.850Z,20.80
2018-09-10T10:32:20.310Z,21.10
2018-09-10T10:34:51.559Z,20.80
2018-09-10T10:37:22.742Z,20.70
2018-09-10T10:39:52.958Z,20.60
2018-09-10T10:42:23.470Z,20.80
2018-09-10T10:44:54.970Z,20.80
2018-09-10T10:47:27.356Z,20.70
2018-09-10T10:49:58.504Z,20.70
2018-09-10T10:52:28.783Z,20.90
2018-09-10T10:54:59.655Z,20.80
2018-09-10T10:57:30.959Z,20.80
2018-09-10T11:00:03.247Z,20.90
2018-09-10T11:02:34.495Z,21.00
2018-09-10T11:05:06.867Z,21.10
2018-09-10T11:07:38.545Z,21.10
2018-09-10T11:10:10.546Z,21.10
2018-09-10T11:12:41.338Z,21.00
2018-09-10T11:15:11.496Z,21.10
2018-09-10T11:17:42.040Z,21.20
2018-09-10T11:20:12.716Z,21.20
2018-09-10T11:22:43.804Z,21.20
2018-09-10T11:25:15.466Z,21.10
2018-09-10T11:27:46.228Z,21.10
2018-09-10T11:30:17.458Z,21.20
2018-09-10T11:32:48.615Z,21.30
2018-09-10T11:35:18.773Z,21.30
2018-09-10T11:37:48.924Z,21.30
2018-09-10T11:40:20.108Z,21.30
2018-09-10T11:42:50.486Z,21.30
2018-09-10T11:45:22.638Z,21.40
2018-09-10T11:47:52.955Z,21.50
2018-09-10T11:50:24.272Z,21.40
2018-09-10T11:52:54.471Z,21.50
2018-09-10T11:55:25.331Z,21.60
2018-09-10T11:57:57.670Z,21.60
2018-09-10T12:00:27.699Z,21.70
2018-09-10T12:02:59.639Z,21.70
2018-09-10T12:05:30.360Z,21.60
2018-09-10T12:08:05.330Z,21.60
2018-09-10T12:10:37.161Z,21.50
2018-09-10T12:13:07.294Z,21.70
2018-09-10T12:15:38.413Z,21.70
2018-09-10T12:18:09.054Z,21.80
2018-09-10T12:20:39.400Z,21.90
2018-09-10T12:23:10.621Z,21.90
2018-09-10T12:25:42.355Z,22.00
2018-09-10T12:28:14.467Z,21.80
2018-09-10T12:30:45.746Z,21.70
2018-09-10T12:33:16.044Z,21.60
2018-09-10T12:35:46.424Z,21.50
2018-09-10T12:38:17.406Z,21.50
2018-09-10T12:40:47.476Z,21.50
2018-09-10T12:43:19.400Z,21.60
2018-09-10T12:45:50.331Z,21.80
2018-09-10T12:48:20.147Z,21.90
2018-09-10T12:50:50.747Z,22.10
2018-09-10T12:53:21.031Z,22.10
2018-09-10T12:55:51.637Z,22.10
2018-09-10T12:58:21.944Z,21.90
2018-09-10T13:00:52.892Z,21.80
2018-09-10T13:03:23.743Z,21.90
2018-09-10T13:05:54.840Z,22.00
2018-09-10T13:08:26.347Z,22.00
2018-09-10T13:10:57.700Z,22.00
2018-09-10T13:13:28.620Z,22.10
2018-09-10T13:15:59.842Z,22.00
2018-09-10T13:18:29.959Z,21.90
2018-09-10T13:21:00.378Z,21.90
2018-09-10T13:23:32.107Z,22.00
2018-09-10T13:26:03.417Z,22.20
2018-09-10T13:28:33.343Z,22.40
2018-09-10T13:31:03.094Z,22.40
2018-09-10T13:33:35.244Z,22.40
2018-09-10T13:36:05.226Z,22.20
2018-09-10T13:38:35.351Z,22.10
2018-09-10T13:41:05.831Z,22.00
2018-09-10T13:43:37.254Z,22.00
2018-09-10T13:46:07.875Z,22.00
2018-09-10T13:48:38.883Z,21.70
2018-09-10T13:51:08.924Z,21.70
2018-09-10T13:53:39.497Z,21.60
2018-09-10T13:56:09.977Z,21.50
2018-09-10T13:58:41.322Z,21.40
2018-09-10T14:01:11.577Z,21.40
2018-09-10T14:03:41.892Z,21.20
2018-09-10T14:06:11.785Z,21.20
2018-09-10T14:08:42.358Z,21.20
2018-09-10T14:11:12.431Z,21.20
2018-09-10T14:13:44.971Z,21.10
2018-09-10T14:16:15.238Z,21.30
2018-09-10T14:18:45.638Z,21.40
2018-09-10T14:21:15.718Z,21.40
2018-09-10T14:23:46.412Z,21.50
2018-09-10T14:26:16.872Z,21.60
2018-09-10T14:28:46.835Z,21.40
2018-09-10T14:31:16.922Z,21.30
2018-09-10T14:33:46.680Z,21.20
2018-09-10T14:36:16.576Z,21.20
2018-09-10T14:38:47.367Z,21.30
2018-09-10T14:41:17.966Z,21.20
2018-09-10T14:43:48.014Z,21.20
2018-09-10T14:46:19.306Z,21.20
2018-09-10T14:48:50.834Z,21.20
2018-09-10T14:51:21.399Z,21.20
2018-09-10T14:53:55.071Z,21.20
2018-09-10T14:56:26.131Z,21.20
2018-09-10T14:58:58.572Z,21.20
2018-09-10T15:01:30.346Z,21.30
2018-09-10T15:04:01.669Z,21.30
2018-09-10T15:06:32.054Z,21.40
2018-09-10T15:09:02.832Z,21.40
2018-09-10T15:11:32.891Z,21.40
2018-09-10T15:14:03.022Z,21.50
2018-09-10T15:16:33.454Z,21.40
2018-09-10T15:19:04.620Z,21.40
2018-09-10T15:21:36.384Z,21.40
2018-09-10T15:24:08.152Z,21.30
2018-09-10T15:26:38.976Z,21.30
2018-09-10T15:29:09.895Z,21.20
2018-09-10T15:31:41.778Z,21.30
2018-09-10T15:34:12.099Z,21.20
2018-09-10T15:36:43.399Z,21.20
2018-09-10T15:39:13.558Z,21.10
2018-09-10T15:41:44.129Z,21.10
2018-09-10T15:44:14.587Z,21.10
2018-09-10T15:46:45.788Z,21.10
2018-09-10T15:49:16.036Z,21.10
2018-09-10T15:51:46.642Z,21.00
2018-09-10T15:54:17.155Z,21.00
2018-09-10T15:56:48.422Z,21.10
2018-09-10T15:59:18.692Z,21.10
2018-09-10T16:01:50.898Z,21.10
2018-09-10T16:04:21.145Z,20.90
2018-09-10T16:06:52.025Z,20.90
2018-09-10T16:09:22.695Z,20.80
2018-09-10T16:11:54.526Z,20.80
2018-09-10T16:14:24.655Z,20.70
2018-09-10T16:16:55.959Z,20.70
2018-09-10T16:19:27.537Z,20.70
2018-09-10T16:21:58.809Z,20.70
2018-09-10T16:24:30.109Z,20.80
2018-09-10T16:27:01.439Z,20.70
2018-09-10T16:29:34.165Z,20.70
2018-09-10T16:32:04.316Z,20.70
2018-09-10T16:34:35.007Z,20.60
2018-09-10T16:37:05.843Z,20.60
2018-09-10T16:39:36.796Z,20.50
2018-09-10T16:44:31.281Z,20.40
2018-09-10T16:47:02.805Z,20.40
2018-09-10T16:49:35.351Z,20.40
2018-09-10T16:52:05.454Z,20.40
2018-09-10T16:54:36.337Z,20.40
2018-09-10T16:57:07.987Z,20.30
2018-09-10T16:59:38.161Z,20.30
2018-09-10T17:02:08.712Z,20.30
2018-09-10T17:04:39.590Z,20.30
2018-09-10T17:07:09.984Z,20.30
2018-09-10T17:09:41.232Z,20.30
2018-09-10T17:12:10.961Z,20.30
2018-09-10T17:14:43.273Z,20.30
2018-09-10T17:17:16.635Z,20.30
2018-09-10T17:19:47.398Z,20.30
2018-09-10T17:22:19.911Z,20.20
2018-09-10T17:24:49.870Z,20.10
2018-09-10T17:27:21.163Z,20.00
2018-09-10T17:29:52.423Z,20.00
2018-09-10T17:32:23.170Z,20.00
2018-09-10T17:34:54.329Z,20.00
2018-09-10T17:37:26.971Z,20.00
2018-09-10T17:39:57.294Z,19.90
2018-09-10T17:42:28.206Z,19.80
2018-09-10T17:45:01.048Z,19.70
2018-09-10T17:47:36.348Z,19.70
2018-09-10T17:50:07.076Z,19.70
2018-09-10T17:52:37.826Z,19.70
2018-09-10T17:55:09.128Z,19.60
2018-09-10T17:57:40.972Z,19.50
2018-09-10T18:00:12.159Z,19.50
2018-09-10T18:02:43.772Z,19.60
2018-09-10T18:05:15.275Z,19.60
2018-09-10T18:07:52.250Z,19.50
2018-09-10T18:10:26.106Z,19.50
2018-09-10T18:12:58.405Z,19.60
2018-09-10T18:15:28.927Z,19.50
2018-09-10T18:18:00.930Z,19.40
2018-09-10T18:20:31.219Z,19.30
2018-09-10T18:23:02.135Z,19.10
2018-09-10T18:25:32.962Z,19.10
2018-09-10T18:28:03.970Z,19.00
2018-09-10T18:30:35.097Z,19.10
2018-09-10T18:33:07.535Z,19.10
2018-09-10T18:35:37.735Z,19.00
2018-09-10T18:38:09.562Z,19.10
2018-09-10T18:40:41.116Z,19.00
2018-09-10T18:43:13.203Z,18.90
2018-09-10T18:45:45.422Z,18.70
2018-09-10T18:48:17.444Z,18.70
2018-09-10T18:50:49.474Z,18.60
2018-09-10T18:53:23.707Z,18.70
2018-09-10T18:55:55.320Z,18.60
2018-09-10T18:58:28.915Z,18.50
2018-09-10T19:01:00.644Z,18.50
2018-09-10T19:03:31.142Z,18.50
2018-09-10T19:06:03.065Z,18.40
2018-09-10T19:08:34.153Z,18.50
2018-09-10T19:11:05.111Z,18.50
2018-09-10T19:13:37.234Z,18.40
2018-09-10T19:16:07.443Z,18.40
2018-09-10T19:18:42.094Z,18.40
2018-09-10T19:21:13.565Z,18.30
2018-09-10T19:23:50.160Z,18.30
2018-09-10T19:26:21.063Z,18.30
2018-09-10T19:28:57.091Z,18.30
2018-09-10T19:31:29.022Z,18.30
2018-09-10T19:34:01.806Z,18.30
2018-09-10T19:36:33.971Z,18.20
2018-09-10T19:39:07.271Z,18.20
2018-09-10T19:41:38.684Z,18.10
2018-09-10T19:44:10.132Z,18.10
2018-09-10T19:46:42.618Z,18.00
2018-09-10T19:49:13.890Z,17.90
2018-09-10T19:51:47.195Z,17.90
2018-09-10T19:54:18.341Z,17.90
2018-09-10T19:56:49.271Z,17.80
2018-09-10T19:59:21.178Z,17.80
2018-09-10T20:01:51.915Z,17.80
2018-09-10T20:04:23.235Z,17.80
2018-09-10T20:06:53.741Z,17.70
2018-09-10T20:09:24.182Z,17.70
2018-09-10T20:11:54.945Z,17.70
2018-09-10T20:14:27.820Z,17.80
2018-09-10T20:16:58.572Z,17.80
2018-09-10T20:19:29.112Z,17.80
2018-09-10T20:22:00.132Z,17.80
2018-09-10T20:24:29.867Z,17.80
2018-09-10T20:27:00.984Z,17.90
2018-09-10T20:29:31.027Z,17.90
2018-09-10T20:32:01.316Z,17.90
2018-09-10T20:34:32.303Z,17.90
2018-09-10T20:37:02.540Z,17.80
2018-09-10T20:39:34.095Z,17.80
2018-09-10T20:42:04.315Z,17.70
2018-09-10T20:44:35.216Z,17.80
2018-09-10T20:47:05.653Z,17.80
2018-09-10T20:49:36.320Z,17.80
2018-09-10T20:52:08.010Z,17.70
2018-09-10T20:54:38.843Z,17.70
2018-09-10T20:57:09.928Z,17.60
2018-09-10T20:59:40.291Z,17.50
2018-09-10T21:02:10.953Z,17.40
2018-09-10T21:04:40.898Z,17.40
2018-09-10T21:07:12.505Z,17.30
2018-09-10T21:09:44.610Z,17.30
2018-09-10T21:12:15.287Z,17.40
2018-09-10T21:14:45.278Z,17.40
2018-09-10T21:17:15.529Z,17.40
2018-09-10T21:19:45.895Z,17.40
2018-09-10T21:22:16.060Z,17.40
2018-09-10T21:24:46.764Z,17.50
2018-09-10T21:27:17.824Z,17.50
2018-09-10T21:29:49.182Z,17.50
2018-09-10T21:32:19.950Z,17.40
2018-09-10T21:34:50.027Z,17.50
2018-09-10T21:37:20.210Z,17.40
2018-09-10T21:39:50.618Z,17.40
2018-09-10T21:42:20.811Z,17.40
2018-09-10T21:44:51.206Z,17.40
2018-09-10T21:47:21.601Z,17.40
2018-09-10T21:49:51.808Z,17.40
2018-09-10T21:52:21.457Z,17.40
2018-09-10T21:54:51.364Z,17.40
2018-09-10T21:57:21.586Z,17.40
2018-09-10T21:59:51.918Z,17.30
2018-09-10T22:02:22.393Z,17.30
2018-09-10T22:04:52.275Z,17.30
2018-09-10T22:07:22.282Z,17.30
2018-09-10T22:09:52.617Z,17.30
2018-09-10T22:12:22.574Z,17.30
2018-09-10T22:14:52.363Z,17.30
2018-09-10T22:17:22.543Z,17.20
2018-09-10T22:19:52.534Z,17.10
2018-09-10T22:22:25.373Z,17.10
2018-09-10T22:24:55.978Z,17.10
2018-09-10T22:27:27.068Z,17.10
2018-09-10T22:29:56.998Z,17.10
2018-09-10T22:32:27.651Z,17.10
2018-09-10T22:34:57.369Z,17.10
2018-09-10T22:37:27.955Z,17.10
2018-09-10T22:39:58.755Z,17.00
2018-09-10T22:42:29.304Z,17.10
2018-09-10T22:44:59.384Z,17.00
2018-09-10T22:47:29.866Z,17.10
2018-09-10T22:49:59.793Z,17.10
2018-09-10T22:52:29.807Z,17.10
2018-09-10T22:55:00.927Z,17.10
2018-09-10T22:57:31.083Z,17.10
2018-09-10T23:00:01.220Z,17.10
2018-09-10T23:02:31.552Z,17.00
2018-09-10T23:05:01.923Z,17.00
2018-09-10T23:07:32.425Z,17.00
2018-09-10T23:10:02.734Z,17.00
2018-09-10T23:12:32.855Z,17.00
2018-09-10T23:15:02.563Z,17.00
2018-09-10T23:17:33.764Z,17.00
2018-09-10T23:20:03.995Z,17.00
2018-09-10T23:22:34.971Z,16.90
2018-09-10T23:25:04.845Z,16.90
2018-09-10T23:27:36.894Z,16.80
2018-09-10T23:30:07.268Z,16.80
2018-09-10T23:32:37.415Z,16.80
2018-09-10T23:35:07.390Z,16.90
2018-09-10T23:37:37.918Z,16.80
2018-09-10T23:40:08.046Z,16.90
2018-09-10T23:42:38.079Z,16.80
2018-09-10T23:45:08.231Z,16.80
2018-09-10T23:47:38.165Z,16.70
2018-09-10T23:50:08.697Z,16.70
2018-09-10T23:52:39.363Z,16.70
2018-09-10T23:55:09.358Z,16.70
2018-09-10T23:57:40.341Z,16.70
